Time;durP1;ratioP1;P1;durP2;ratioP2;P2;SDS_P1;SDS_P2;PMS_P1;PMS_P2;Temp;Humidity;BMP_temperature;BMP_pressure;BME280_temperature;BME280_humidity;BME280_pressure;Samples;Min_cycle;Max_cycle;Signal;HPM_P1;HPM_P2
2022/07/19 00:00:24;;;;;;;9.80;6.20;;;20.10;61.10;;;;;;2372838;56;21054;-74
2022/07/19 00:02:52;;;;;;;10.98;6.87;;;20.10;61.10;;;;;;2373662;56;21114;-75
2022/07/19 00:05:20;;;;;;;9.85;6.70;;;20.00;61.20;;;;;;2372717;56;21802;-75
2022/07/19 00:07:48;;;;;;;9.35;6.65;;;20.00;61.40;;;;;;2626489;52;21055;-75
2022/07/19 00:10:18;;;;;;;9.13;6.43;;;19.90;61.40;;;;;;2373308;56;21063;-75
2022/07/19 00:12:46;;;;;;;10.73;6.30;;;19.90;61.60;;;;;;2373728;56;21051;-75
2022/07/19 00:15:15;;;;;;;9.52;6.05;;;19.90;61.60;;;;;;2373389;56;21047;-75
2022/07/19 00:17:47;;;;;;;9.07;5.97;;;19.90;61.40;;;;;;2372465;56;21047;-75
2022/07/19 00:20:17;;;;;;;11.25;6.18;;;19.80;61.10;;;;;;2625220;52;21071;-75
2022/07/19 00:22:44;;;;;;;9.15;5.82;;;19.80;61.00;;;;;;2371536;56;21134;-75
2022/07/19 00:25:12;;;;;;;8.25;5.93;;;19.90;61.30;;;;;;2372034;56;21074;-74
2022/07/19 00:27:41;;;;;;;10.30;5.93;;;19.80;61.60;;;;;;2625063;52;21038;-75
2022/07/19 00:30:10;;;;;;;9.27;6.00;;;19.80;61.70;;;;;;2372456;56;21059;-75
2022/07/19 00:32:37;;;;;;;9.55;5.75;;;19.80;61.80;;;;;;2625345;52;21094;-75
2022/07/19 00:35:06;;;;;;;12.32;6.40;;;19.70;61.80;;;;;;2370204;56;21125;-75
2022/07/19 00:37:34;;;;;;;8.68;6.22;;;19.70;61.80;;;;;;2371564;56;21530;-75
2022/07/19 00:40:01;;;;;;;10.30;6.57;;;19.70;62.00;;;;;;2624436;52;21027;-75
2022/07/19 00:42:29;;;;;;;11.80;6.70;;;19.70;62.20;;;;;;2372457;56;21109;-75
2022/07/19 00:44:56;;;;;;;9.55;6.15;;;19.60;62.20;;;;;;2371932;56;21541;-75
2022/07/19 00:47:24;;;;;;;10.88;6.68;;;19.60;62.40;;;;;;2371551;56;21051;-75
2022/07/19 00:49:51;;;;;;;10.23;6.40;;;19.60;62.20;;;;;;2372227;56;21031;-75
2022/07/19 00:52:20;;;;;;;11.93;6.43;;;19.50;62.00;;;;;;2372362;56;21696;-76
2022/07/19 00:54:49;;;;;;;10.73;6.60;;;19.40;62.30;;;;;;2372302;56;21035;-74
2022/07/19 00:57:17;;;;;;;12.35;6.68;;;19.50;62.60;;;;;;2372045;56;21051;-75
2022/07/19 00:59:46;;;;;;;10.63;6.78;;;19.50;62.60;;;;;;2372680;56;21054;-75
2022/07/19 01:02:15;;;;;;;9.00;6.40;;;19.40;62.70;;;;;;2371056;56;21117;-75
2022/07/19 01:04:42;;;;;;;10.38;6.53;;;19.30;62.80;;;;;;2372297;56;21058;-75
2022/07/19 01:07:09;;;;;;;12.98;7.22;;;19.30;62.90;;;;;;2372215;56;21090;-75
2022/07/19 01:09:38;;;;;;;10.18;6.22;;;19.30;62.60;;;;;;2372493;56;21370;-74
2022/07/19 01:12:08;;;;;;;8.63;5.82;;;19.20;63.50;;;;;;2372742;56;21122;-75
2022/07/19 01:14:36;;;;;;;9.10;7.03;;;19.10;63.70;;;;;;2372107;56;21043;-75
2022/07/19 01:17:05;;;;;;;10.05;7.15;;;19.10;63.40;;;;;;2372023;56;21102;-75
2022/07/19 01:19:33;;;;;;;10.57;6.82;;;19.10;63.80;;;;;;2373269;56;21090;-76
2022/07/19 01:22:00;;;;;;;10.23;6.85;;;19.10;63.80;;;;;;2373481;56;21086;-75
2022/07/19 01:24:28;;;;;;;10.70;7.15;;;19.00;63.90;;;;;;2373173;56;21467;-75
2022/07/19 01:29:30;;;;;;;9.97;7.23;;;19.00;64.10;;;;;;2335431;57;28789;-75
2022/07/19 01:31:58;;;;;;;8.50;6.18;;;18.60;68.00;;;;;;2372568;56;21061;-74
2022/07/19 01:37:01;;;;;;;10.18;6.28;;;18.80;66.40;;;;;;2354070;57;22600;-76
2022/07/19 01:39:29;;;;;;;10.25;6.65;;;18.90;65.20;;;;;;2347212;57;21548;-75
2022/07/19 01:41:56;;;;;;;11.15;6.87;;;18.90;65.20;;;;;;2371092;56;21691;-76
2022/07/19 01:44:23;;;;;;;12.68;7.82;;;18.80;64.90;;;;;;2375042;56;21043;-76
2022/07/19 01:46:51;;;;;;;9.65;6.40;;;18.80;64.90;;;;;;2373136;56;21615;-76
2022/07/19 01:49:18;;;;;;;10.25;6.60;;;18.70;65.00;;;;;;2374495;56;21042;-76
2022/07/19 01:51:45;;;;;;;10.77;7.32;;;18.70;65.20;;;;;;2627972;52;21514;-76
2022/07/19 01:54:13;;;;;;;10.60;7.03;;;18.70;65.20;;;;;;2627099;52;21055;-76
2022/07/19 01:56:43;;;;;;;12.10;7.20;;;18.70;65.20;;;;;;2627798;52;21035;-76
2022/07/19 01:59:10;;;;;;;9.75;6.60;;;18.70;65.20;;;;;;2374261;56;21177;-76
2022/07/19 02:01:39;;;;;;;12.05;6.95;;;18.70;65.20;;;;;;2374270;56;21531;-75
2022/07/19 02:04:06;;;;;;;11.23;6.72;;;18.60;65.30;;;;;;2375030;56;21031;-75
2022/07/19 02:06:33;;;;;;;11.05;6.70;;;18.60;65.50;;;;;;2373396;56;21028;-76
2022/07/19 02:09:01;;;;;;;11.55;6.68;;;18.50;65.80;;;;;;2374385;56;21051;-76
2022/07/19 02:11:35;;;;;;;11.32;7.18;;;18.50;65.90;;;;;;2374029;56;21046;-76
2022/07/19 02:14:02;;;;;;;8.80;6.60;;;18.50;66.00;;;;;;2373565;56;21162;-76
2022/07/19 02:16:29;;;;;;;11.02;6.93;;;18.40;65.80;;;;;;2373992;56;21534;-76
2022/07/19 02:18:57;;;;;;;10.77;6.90;;;18.40;66.10;;;;;;2374541;56;21034;-75
2022/07/19 02:21:24;;;;;;;10.27;7.50;;;18.40;66.10;;;;;;2374172;56;21046;-75
2022/07/19 02:23:51;;;;;;;11.60;7.60;;;18.30;66.00;;;;;;2374163;56;21043;-75
2022/07/19 02:26:19;;;;;;;12.95;7.72;;;18.30;65.80;;;;;;2372934;56;21074;-76
2022/07/19 02:28:46;;;;;;;10.60;7.18;;;18.30;65.40;;;;;;2374463;56;21043;-76
2022/07/19 02:31:13;;;;;;;10.48;6.68;;;18.30;65.60;;;;;;2628927;52;21035;-75
2022/07/19 02:33:41;;;;;;;10.75;6.55;;;18.30;65.40;;;;;;2374478;56;21572;-76
2022/07/19 02:36:09;;;;;;;10.48;6.43;;;18.30;65.70;;;;;;2627877;52;21114;-76
2022/07/19 02:38:36;;;;;;;10.10;6.53;;;18.30;65.80;;;;;;2375412;56;21047;-75
2022/07/19 02:41:04;;;;;;;13.48;7.43;;;18.20;66.00;;;;;;2374348;56;21154;-76
2022/07/19 02:43:31;;;;;;;9.90;5.93;;;18.20;66.10;;;;;;2373605;56;21142;-75
2022/07/19 02:45:58;;;;;;;11.43;6.15;;;18.20;66.20;;;;;;2372754;56;21130;-75
2022/07/19 02:48:26;;;;;;;8.43;5.80;;;18.20;66.20;;;;;;2371583;56;21129;-76
2022/07/19 02:50:53;;;;;;;8.75;5.47;;;18.10;66.30;;;;;;2371466;56;21541;-76
2022/07/19 02:53:21;;;;;;;7.35;4.85;;;18.10;66.30;;;;;;2371350;56;21043;-74
2022/07/19 02:55:48;;;;;;;6.90;4.97;;;18.10;66.20;;;;;;2625520;52;21054;-76
2022/07/19 02:58:16;;;;;;;8.98;5.43;;;18.00;66.30;;;;;;2627066;52;21119;-76
2022/07/19 03:00:43;;;;;;;8.27;6.35;;;18.00;66.30;;;;;;2372649;56;21700;-75
2022/07/19 03:05:56;;;;;;;9.88;6.30;;;17.90;66.30;;;;;;2372759;56;21007;-75
2022/07/19 03:08:24;;;;;;;8.93;5.95;;;17.90;66.30;;;;;;2373228;56;21569;-75
2022/07/19 03:10:51;;;;;;;9.05;6.30;;;17.90;66.40;;;;;;2372704;56;21035;-76
2022/07/19 03:13:19;;;;;;;10.15;6.25;;;17.90;66.70;;;;;;2625468;52;21059;-75
2022/07/19 03:15:46;;;;;;;8.95;6.22;;;17.80;66.80;;;;;;2372008;56;21047;-76
2022/07/19 03:18:13;;;;;;;10.68;6.65;;;17.80;66.90;;;;;;2373544;56;21035;-75
2022/07/19 03:20:40;;;;;;;8.80;5.37;;;17.80;66.70;;;;;;2626592;52;21349;-75
2022/07/19 03:23:08;;;;;;;7.40;5.53;;;17.80;66.70;;;;;;2373711;56;21110;-75
2022/07/19 03:25:35;;;;;;;13.27;6.32;;;17.80;66.50;;;;;;2626468;52;21127;-75
2022/07/19 03:28:03;;;;;;;8.63;5.53;;;17.80;66.30;;;;;;2626894;52;21107;-76
2022/07/19 03:30:31;;;;;;;9.20;5.95;;;17.80;66.40;;;;;;2374157;56;21043;-76
2022/07/19 03:32:59;;;;;;;8.63;6.12;;;17.80;66.30;;;;;;2373489;56;21123;-76
2022/07/19 03:35:26;;;;;;;7.82;5.60;;;17.80;66.70;;;;;;2373130;56;21045;-75
2022/07/19 03:37:53;;;;;;;8.85;5.72;;;17.70;67.00;;;;;;2374251;56;21601;-75
2022/07/19 03:40:21;;;;;;;8.65;5.43;;;17.70;67.30;;;;;;2373195;56;21110;-74
2022/07/19 03:42:48;;;;;;;7.85;5.15;;;17.70;67.30;;;;;;2373957;56;21135;-76
2022/07/19 03:45:16;;;;;;;8.15;5.72;;;17.70;67.30;;;;;;2372386;56;21081;-75
2022/07/19 03:47:43;;;;;;;8.43;6.03;;;17.70;67.50;;;;;;2373336;56;21070;-76
2022/07/19 03:50:10;;;;;;;8.73;5.75;;;17.70;67.70;;;;;;2373586;56;21526;-75
2022/07/19 03:52:38;;;;;;;7.68;5.43;;;17.70;67.90;;;;;;2374249;56;21521;-75
2022/07/19 03:55:06;;;;;;;8.18;5.78;;;17.70;68.20;;;;;;2372764;56;21082;-76
2022/07/19 03:57:34;;;;;;;8.65;5.65;;;17.70;68.40;;;;;;2373531;56;21051;-75
2022/07/19 04:00:03;;;;;;;8.65;5.37;;;17.70;68.50;;;;;;2373895;56;21105;-75
2022/07/19 04:02:30;;;;;;;8.63;5.85;;;17.60;68.60;;;;;;2373878;56;21561;-76
2022/07/19 04:04:58;;;;;;;7.57;5.37;;;17.70;68.80;;;;;;2374091;56;21114;-76
2022/07/19 04:07:25;;;;;;;7.47;5.00;;;17.70;68.80;;;;;;2626164;52;21490;-76
2022/07/19 04:09:53;;;;;;;9.27;5.65;;;17.70;68.80;;;;;;2373364;56;21047;-75
2022/07/19 04:12:20;;;;;;;9.65;5.93;;;17.70;68.90;;;;;;2374130;56;21094;-76
2022/07/19 04:14:47;;;;;;;10.73;6.72;;;17.70;69.00;;;;;;2373805;56;21043;-76
2022/07/19 04:17:15;;;;;;;12.30;6.57;;;17.70;69.10;;;;;;2373166;56;21031;-76
2022/07/19 04:19:42;;;;;;;9.98;6.82;;;17.70;69.10;;;;;;2373951;56;21039;-76
2022/07/19 04:22:09;;;;;;;9.88;6.75;;;17.60;69.10;;;;;;2373690;56;21047;-76
2022/07/19 04:24:37;;;;;;;10.50;6.85;;;17.60;69.30;;;;;;2626625;52;21051;-76
2022/07/19 04:27:04;;;;;;;9.75;7.45;;;17.60;69.40;;;;;;2371955;56;21178;-76
2022/07/19 04:29:32;;;;;;;11.65;7.07;;;17.60;69.70;;;;;;2627559;52;21609;-76
2022/07/19 04:31:59;;;;;;;9.38;6.47;;;17.60;69.90;;;;;;2373429;56;21189;-75
2022/07/19 04:34:26;;;;;;;10.35;5.95;;;17.60;70.10;;;;;;2626639;52;21098;-76
2022/07/19 04:36:54;;;;;;;8.77;6.15;;;17.60;70.10;;;;;;2373583;56;21130;-76
2022/07/19 04:39:21;;;;;;;9.15;6.18;;;17.70;70.10;;;;;;2626183;52;21075;-76
2022/07/19 04:41:49;;;;;;;10.07;6.47;;;17.80;70.10;;;;;;2626424;52;21086;-77
2022/07/19 04:44:16;;;;;;;9.57;6.25;;;17.80;70.10;;;;;;2625931;52;21038;-75
2022/07/19 04:46:43;;;;;;;11.25;6.28;;;17.90;70.20;;;;;;2370481;56;21198;-76
2022/07/19 04:49:10;;;;;;;9.02;6.15;;;17.90;70.30;;;;;;2580447;51;70234;-84
2022/07/19 04:51:38;;;;;;;8.20;5.78;;;17.90;70.40;;;;;;2303273;58;21399;-84
2022/07/19 04:54:05;;;;;;;8.82;5.72;;;18.00;70.60;;;;;;2540524;54;21121;-84
2022/07/19 04:56:32;;;;;;;9.82;6.45;;;18.00;70.60;;;;;;2540794;54;21126;-84
2022/07/19 04:58:59;;;;;;;9.15;6.07;;;18.00;70.70;;;;;;2301566;58;21137;-85
2022/07/19 05:01:27;;;;;;;10.23;6.07;;;18.10;70.60;;;;;;2301763;58;21118;-85
2022/07/19 05:03:55;;;;;;;9.15;5.85;;;18.10;70.60;;;;;;2539264;54;21148;-85
2022/07/19 05:06:24;;;;;;;9.02;5.80;;;18.20;70.60;;;;;;2538320;54;21078;-85
2022/07/19 05:08:52;;;;;;;9.23;5.78;;;18.20;70.60;;;;;;2538796;54;21069;-86
2022/07/19 05:11:19;;;;;;;8.73;6.10;;;18.30;70.90;;;;;;2301986;58;21153;-85
2022/07/19 05:13:47;;;;;;;11.02;7.07;;;18.30;70.90;;;;;;2301910;58;21670;-85
2022/07/19 05:16:14;;;;;;;8.85;5.85;;;18.40;70.80;;;;;;2301385;58;21176;-84
2022/07/19 05:18:41;;;;;;;9.70;6.10;;;18.40;70.80;;;;;;2301833;58;21150;-85
2022/07/19 05:21:09;;;;;;;8.55;5.35;;;18.40;70.70;;;;;;2538879;54;21110;-84
2022/07/19 05:23:36;;;;;;;9.40;6.25;;;18.50;70.80;;;;;;2538632;54;21069;-85
2022/07/19 05:26:03;;;;;;;10.50;6.32;;;18.60;70.80;;;;;;2301017;58;21086;-85
2022/07/19 05:28:31;;;;;;;11.57;6.55;;;18.60;70.90;;;;;;2538224;54;21627;-85
2022/07/19 05:30:58;;;;;;;11.00;5.93;;;18.70;71.10;;;;;;2301617;58;21177;-85
2022/07/19 05:33:26;;;;;;;9.40;6.28;;;18.70;71.30;;;;;;2301537;58;21377;-84
2022/07/19 05:35:54;;;;;;;10.55;5.95;;;18.80;71.50;;;;;;2300589;58;21369;-84
2022/07/19 05:38:21;;;;;;;10.65;6.30;;;18.80;71.80;;;;;;2538843;54;21176;-85
2022/07/19 05:40:50;;;;;;;10.23;6.20;;;18.90;72.30;;;;;;2301117;58;21074;-85
2022/07/19 05:43:17;;;;;;;11.38;6.37;;;18.90;72.50;;;;;;2301028;58;21070;-85
2022/07/19 05:45:44;;;;;;;9.80;6.07;;;19.00;72.80;;;;;;2301045;58;21210;-86
2022/07/19 05:48:12;;;;;;;10.73;6.03;;;19.10;73.00;;;;;;2538564;54;21359;-86
2022/07/19 05:50:39;;;;;;;11.55;6.15;;;19.10;73.10;;;;;;2300619;58;21065;-85
2022/07/19 05:53:06;;;;;;;9.00;5.90;;;19.20;73.10;;;;;;2538561;54;21157;-85
2022/07/19 05:55:34;;;;;;;9.52;5.68;;;19.20;73.10;;;;;;2300603;58;21245;-85
2022/07/19 05:58:01;;;;;;;9.68;5.70;;;19.30;73.50;;;;;;2300979;58;21126;-85
2022/07/19 06:00:28;;;;;;;9.52;5.95;;;19.30;73.90;;;;;;2538192;54;21139;-84
2022/07/19 06:02:56;;;;;;;8.60;5.78;;;19.40;73.90;;;;;;2300879;58;21063;-84
2022/07/19 06:05:24;;;;;;;8.35;5.72;;;19.50;74.10;;;;;;2300920;58;21161;-86
2022/07/19 06:07:51;;;;;;;8.43;5.65;;;19.60;73.90;;;;;;2538557;54;21158;-86
2022/07/19 06:10:19;;;;;;;7.82;5.90;;;19.60;73.50;;;;;;2301388;58;21141;-84
2022/07/19 06:12:46;;;;;;;8.48;6.10;;;19.70;73.20;;;;;;2538661;54;21042;-86
2022/07/19 06:15:13;;;;;;;12.73;6.15;;;19.80;73.30;;;;;;2538216;54;21209;-84
2022/07/19 06:17:40;;;;;;;8.52;5.78;;;19.90;73.10;;;;;;2300463;58;21134;-86
2022/07/19 06:20:10;;;;;;;8.38;5.95;;;19.90;72.80;;;;;;2538029;54;21194;-85
2022/07/19 06:22:37;;;;;;;8.02;5.60;;;20.00;71.80;;;;;;2301135;58;21177;-85
2022/07/19 06:25:07;;;;;;;7.45;5.10;;;20.10;71.20;;;;;;2301401;58;21134;-85
2022/07/19 06:27:34;;;;;;;10.40;6.00;;;20.20;71.20;;;;;;2300648;58;21058;-85
2022/07/19 06:30:02;;;;;;;9.90;5.57;;;20.30;70.90;;;;;;2302715;58;21121;-85
2022/07/19 06:35:06;;;;;;;10.40;6.37;;;20.40;71.10;;;;;;2335761;57;27774;-76
2022/07/19 06:37:34;;;;;;;7.97;5.78;;;20.50;70.90;;;;;;2345894;57;21050;-77
2022/07/19 06:40:01;;;;;;;7.75;5.78;;;20.60;70.20;;;;;;2597242;52;21125;-77
2022/07/19 06:42:29;;;;;;;14.65;6.10;;;20.80;69.20;;;;;;2373728;56;21647;-77
2022/07/19 06:44:57;;;;;;;10.18;5.55;;;20.80;68.20;;;;;;2374350;56;21130;-76
2022/07/19 06:47:25;;;;;;;7.35;5.18;;;20.90;67.50;;;;;;2373334;56;21114;-76
2022/07/19 06:49:52;;;;;;;7.90;4.90;;;21.10;67.10;;;;;;2374558;56;21624;-77
2022/07/19 06:52:19;;;;;;;8.90;5.62;;;21.10;66.80;;;;;;2372713;56;21035;-77
2022/07/19 06:54:47;;;;;;;9.93;5.37;;;21.20;66.10;;;;;;2627791;52;21138;-76
2022/07/19 06:57:14;;;;;;;11.00;6.35;;;21.30;66.30;;;;;;2373797;56;21051;-76
2022/07/19 06:59:42;;;;;;;8.63;5.28;;;21.40;65.80;;;;;;2373790;56;21521;-77
2022/07/19 07:02:09;;;;;;;9.23;5.82;;;21.40;65.40;;;;;;2373954;56;21794;-77
2022/07/19 07:04:36;;;;;;;8.45;5.62;;;21.50;65.30;;;;;;2373786;56;21067;-77
2022/07/19 07:07:03;;;;;;;7.80;5.20;;;21.60;65.00;;;;;;2372637;56;21110;-77
2022/07/19 07:09:31;;;;;;;7.12;4.87;;;21.60;64.90;;;;;;2372053;56;21055;-77
2022/07/19 07:11:58;;;;;;;6.97;4.50;;;21.80;64.90;;;;;;2372314;56;21074;-77
2022/07/19 07:14:25;;;;;;;6.68;4.72;;;21.80;63.60;;;;;;2373134;56;21138;-76
2022/07/19 07:16:53;;;;;;;9.57;4.68;;;21.90;63.00;;;;;;2372645;56;21529;-78
2022/07/19 07:19:20;;;;;;;7.82;5.15;;;22.00;62.70;;;;;;2372298;56;21047;-76
2022/07/19 07:21:48;;;;;;;8.00;5.28;;;22.00;62.20;;;;;;2372843;56;21114;-78
2022/07/19 07:24:16;;;;;;;7.45;4.87;;;22.10;62.00;;;;;;2371938;56;21149;-77
2022/07/19 07:26:44;;;;;;;6.97;4.45;;;22.20;61.40;;;;;;2371938;56;21059;-78
2022/07/19 07:29:12;;;;;;;6.82;4.47;;;22.20;60.80;;;;;;2373503;56;21046;-78
2022/07/19 07:31:39;;;;;;;9.77;4.70;;;22.30;59.40;;;;;;2372669;56;21799;-78
2022/07/19 07:34:06;;;;;;;6.70;4.95;;;22.40;58.60;;;;;;2374068;56;21058;-78
2022/07/19 07:36:34;;;;;;;7.28;4.70;;;22.60;58.90;;;;;;2372056;56;21031;-78
2022/07/19 07:39:01;;;;;;;6.55;4.70;;;22.70;58.10;;;;;;2374017;56;21609;-77
2022/07/19 07:41:28;;;;;;;6.50;4.30;;;22.70;57.80;;;;;;2371521;56;21042;-77
2022/07/19 07:43:56;;;;;;;8.02;5.00;;;22.80;56.80;;;;;;2372918;56;21047;-77
2022/07/19 07:46:23;;;;;;;7.65;4.72;;;22.80;56.10;;;;;;2371000;56;21605;-76
2022/07/19 07:48:50;;;;;;;7.40;4.85;;;23.00;55.80;;;;;;2372392;56;21099;-76
2022/07/19 07:51:18;;;;;;;8.00;4.82;;;23.00;55.00;;;;;;2372458;56;21134;-76
2022/07/19 07:53:45;;;;;;;7.32;5.10;;;23.10;54.80;;;;;;2373144;56;21039;-75
2022/07/19 07:56:12;;;;;;;6.57;4.05;;;23.10;54.60;;;;;;2371523;56;21131;-76
2022/07/19 07:58:40;;;;;;;5.75;4.57;;;23.30;53.90;;;;;;2370555;56;21066;-75
2022/07/19 08:01:07;;;;;;;7.00;4.45;;;23.30;53.00;;;;;;2370432;56;21093;-75
2022/07/19 08:03:35;;;;;;;9.38;4.85;;;23.40;52.80;;;;;;2370085;56;21213;-77
2022/07/19 08:06:02;;;;;;;8.00;5.20;;;23.40;52.60;;;;;;2367605;56;21047;-75
2022/07/19 08:08:30;;;;;;;6.20;4.20;;;23.50;53.70;;;;;;2369012;56;21081;-76
2022/07/19 08:16:55;;;;;;;7.07;4.55;;;23.90;52.20;;;;;;2550726;53;21074;-76
2022/07/19 08:19:22;;;;;;;7.07;4.03;;;24.00;51.20;;;;;;2309977;58;21139;-76
2022/07/19 08:21:49;;;;;;;6.85;4.40;;;24.00;51.20;;;;;;2311082;58;21119;-76
2022/07/19 08:24:17;;;;;;;7.00;4.80;;;24.10;50.40;;;;;;2309733;58;21135;-76
2022/07/19 08:27:11;;;;;;;5.60;4.18;;;24.10;50.10;;;;;;2292297;58;21436;-77
2022/07/19 08:29:38;;;;;;;5.15;3.85;;;24.20;50.30;;;;;;2311277;58;21571;-76
2022/07/19 08:32:06;;;;;;;5.10;3.60;;;24.20;49.60;;;;;;2305053;58;21150;-76
2022/07/19 08:34:34;;;;;;;7.62;4.00;;;24.30;50.40;;;;;;2310721;58;21151;-76
2022/07/19 08:37:01;;;;;;;8.27;4.30;;;24.40;49.20;;;;;;2310179;58;21518;-75
2022/07/19 08:39:29;;;;;;;6.35;4.40;;;24.40;49.80;;;;;;2310903;58;21104;-76
2022/07/19 08:41:56;;;;;;;6.53;4.12;;;24.50;48.40;;;;;;2548866;54;21315;-78
2022/07/19 08:44:23;;;;;;;6.57;4.15;;;24.50;46.90;;;;;;2308964;58;21566;-77
2022/07/19 08:46:52;;;;;;;6.75;3.90;;;24.60;48.00;;;;;;2308119;58;21052;-75
2022/07/19 08:49:20;;;;;;;6.57;4.18;;;24.60;48.40;;;;;;2309666;58;21056;-75
2022/07/19 08:51:48;;;;;;;6.47;3.92;;;24.70;48.80;;;;;;2309234;58;21056;-76
2022/07/19 08:54:16;;;;;;;5.95;4.07;;;24.80;49.30;;;;;;2310191;58;21043;-76
2022/07/19 08:59:33;;;;;;;6.55;4.12;;;24.90;49.30;;;;;;2309961;58;21067;-76
2022/07/19 09:02:00;;;;;;;7.57;4.43;;;25.00;49.00;;;;;;2310216;58;21060;-76
2022/07/19 09:04:30;;;;;;;6.65;4.55;;;25.00;48.40;;;;;;2310113;58;21625;-75
2022/07/19 09:06:58;;;;;;;7.28;3.90;;;25.10;48.40;;;;;;2309727;58;21064;-75
2022/07/19 09:09:27;;;;;;;7.40;3.83;;;25.20;46.50;;;;;;2310510;58;21271;-77
2022/07/19 09:11:56;;;;;;;6.30;4.07;;;25.20;45.70;;;;;;2307876;58;21068;-75
2022/07/19 09:14:26;;;;;;;4.68;3.35;;;25.30;44.30;;;;;;2307475;58;21060;-76
2022/07/19 09:17:02;;;;;;;5.00;3.12;;;25.30;44.50;;;;;;2306578;58;21061;-76
2022/07/19 09:19:31;;;;;;;6.15;3.60;;;25.30;44.10;;;;;;2309307;58;21067;-75
2022/07/19 09:22:02;;;;;;;6.20;3.37;;;25.40;43.60;;;;;;2310002;58;21147;-76
2022/07/19 09:24:32;;;;;;;4.37;3.03;;;25.50;43.30;;;;;;2547095;54;21068;-75
2022/07/19 09:27:02;;;;;;;6.78;3.30;;;25.60;44.00;;;;;;2306624;58;21131;-75
2022/07/19 09:29:31;;;;;;;4.68;3.65;;;25.60;45.00;;;;;;2308379;58;21167;-74
2022/07/19 09:32:05;;;;;;;6.43;3.17;;;25.70;44.70;;;;;;2307709;58;21542;-75
2022/07/19 09:34:34;;;;;;;6.12;3.97;;;25.80;44.50;;;;;;2546721;54;21048;-74
2022/07/19 09:39:56;;;;;;;6.12;3.58;;;25.80;43.80;;;;;;2355499;56;22074;-76
2022/07/19 09:42:25;;;;;;;6.53;3.95;;;25.90;44.30;;;;;;2371166;56;21112;-75
2022/07/19 09:44:59;;;;;;;7.22;3.62;;;26.00;44.40;;;;;;2372066;56;21047;-78
2022/07/19 09:47:33;;;;;;;6.60;3.62;;;26.10;44.80;;;;;;2372389;56;21054;-79
2022/07/19 09:50:02;;;;;;;4.68;3.60;;;26.10;44.00;;;;;;2626484;52;21190;-79
2022/07/19 09:52:30;;;;;;;7.18;4.03;;;26.20;43.20;;;;;;2373981;56;21050;-80
2022/07/19 09:55:00;;;;;;;5.53;4.12;;;26.20;43.30;;;;;;2372649;56;21134;-78
2022/07/19 09:57:29;;;;;;;6.05;3.85;;;26.30;44.80;;;;;;2373190;56;21042;-75
2022/07/19 09:59:58;;;;;;;5.97;3.85;;;26.40;44.40;;;;;;2371173;56;21900;-75
2022/07/19 10:02:27;;;;;;;6.90;3.55;;;26.40;44.70;;;;;;2372587;56;21055;-76
2022/07/19 10:04:54;;;;;;;5.93;3.78;;;26.50;42.90;;;;;;2371855;56;21545;-75
2022/07/19 10:07:22;;;;;;;6.03;3.50;;;26.50;43.20;;;;;;2626057;52;21061;-75
2022/07/19 10:09:51;;;;;;;5.78;3.72;;;26.50;42.10;;;;;;2373150;56;21105;-75
2022/07/19 10:12:19;;;;;;;5.10;3.47;;;26.60;43.00;;;;;;2372709;56;21042;-75
2022/07/19 10:14:46;;;;;;;4.30;3.30;;;26.70;42.90;;;;;;2370567;56;21612;-75
2022/07/19 10:17:26;;;;;;;11.20;3.45;;;26.70;43.40;;;;;;2625598;52;21027;-75
2022/07/19 10:19:55;;;;;;;4.80;3.40;;;26.80;43.20;;;;;;2372545;56;21138;-76
2022/07/19 10:22:24;;;;;;;5.15;3.70;;;26.90;41.50;;;;;;2373811;56;21038;-77
2022/07/19 10:24:53;;;;;;;4.25;3.12;;;26.90;41.90;;;;;;2373173;56;21603;-76
2022/07/19 10:27:38;;;;;;;10.55;3.50;;;26.90;40.10;;;;;;2371212;56;21114;-76
2022/07/19 10:30:24;;;;;;;4.80;3.25;;;27.00;40.40;;;;;;2373553;56;21074;-76
2022/07/19 10:32:53;;;;;;;3.83;2.75;;;27.10;39.20;;;;;;2372739;56;22211;-76
2022/07/19 10:35:23;;;;;;;3.22;2.60;;;27.10;39.20;;;;;;2373340;56;21045;-76
2022/07/19 10:37:52;;;;;;;5.47;3.08;;;27.20;40.30;;;;;;2372473;56;21038;-76
2022/07/19 10:43:28;;;;;;;5.18;3.20;;;27.30;40.30;;;;;;2533248;54;22638;-76
2022/07/19 10:46:11;;;;;;;4.65;3.08;;;27.40;39.60;;;;;;2288298;58;21178;-76
2022/07/19 10:48:40;;;;;;;8.03;3.53;;;27.40;39.70;;;;;;2307162;54;21023;-74
2022/07/19 10:51:11;;;;;;;4.30;3.12;;;27.50;39.00;;;;;;2264513;59;21318;-74
2022/07/19 10:54:03;;;;;;;6.15;3.33;;;27.60;38.90;;;;;;2265424;59;21064;-73
2022/07/19 10:56:42;;;;;;;5.70;3.42;;;27.70;39.50;;;;;;2264223;59;21662;-76
2022/07/19 10:59:11;;;;;;;4.62;3.28;;;27.80;39.70;;;;;;2264076;59;21115;-75
2022/07/19 11:01:53;;;;;;;5.40;3.20;;;27.80;39.70;;;;;;2265423;59;21079;-75
2022/07/19 11:04:28;;;;;;;4.65;3.58;;;28.00;39.90;;;;;;2265181;59;21594;-74
2022/07/19 11:07:14;;;;;;;8.77;3.58;;;28.10;39.60;;;;;;2264502;59;21064;-74
2022/07/19 11:09:43;;;;;;;10.15;3.33;;;28.20;39.50;;;;;;2264879;59;21063;-73
2022/07/19 11:15:11;;;;;;;4.85;2.80;;;28.40;38.80;;;;;;2326529;57;22158;-76
2022/07/19 11:17:39;;;;;;;4.47;3.30;;;28.50;37.70;;;;;;2591673;53;21626;-77
2022/07/19 11:20:10;;;;;;;7.30;3.50;;;28.70;37.50;;;;;;2349479;56;21086;-77
2022/07/19 11:22:43;;;;;;;5.05;3.30;;;28.90;36.20;;;;;;2373358;56;21098;-77
2022/07/19 11:25:11;;;;;;;;;;;29.10;36.20;;;;;;2376217;56;21134;-77
2022/07/19 11:27:41;;;;;;;6.00;3.30;;;29.10;36.80;;;;;;2372729;56;20072;-77
2022/07/19 11:30:11;;;;;;;3.70;2.85;;;29.50;36.20;;;;;;2372484;56;21239;-75
2022/07/19 11:32:38;;;;;;;4.22;2.85;;;29.60;35.60;;;;;;2369497;56;21118;-74
2022/07/19 11:35:08;;;;;;;6.80;2.53;;;29.80;35.10;;;;;;2370813;56;21054;-75
2022/07/19 11:37:39;;;;;;;3.95;3.15;;;29.90;34.90;;;;;;2625266;52;21038;-75
2022/07/19 11:40:10;;;;;;;6.57;3.15;;;30.10;35.50;;;;;;2373140;56;21043;-75
2022/07/19 11:42:40;;;;;;;5.07;3.00;;;30.30;34.50;;;;;;2371561;56;21098;-75
2022/07/19 11:45:16;;;;;;;3.03;2.50;;;30.40;34.80;;;;;;2372707;56;21166;-74
2022/07/19 11:47:45;;;;;;;5.10;3.17;;;30.60;33.90;;;;;;2371401;56;21157;-74
2022/07/19 11:50:15;;;;;;;4.47;3.22;;;30.70;34.90;;;;;;2626916;52;21355;-73
2022/07/19 11:52:44;;;;;;;3.90;2.75;;;30.90;33.20;;;;;;2373463;56;21038;-75
2022/07/19 11:55:11;;;;;;;4.82;2.80;;;31.00;33.40;;;;;;2373076;56;21113;-73
2022/07/19 11:57:39;;;;;;;10.82;3.33;;;31.20;33.40;;;;;;2372246;56;21106;-74
2022/07/19 12:00:10;;;;;;;4.90;3.03;;;31.30;32.90;;;;;;2372667;56;21051;-75
2022/07/19 12:05:58;;;;;;;5.25;2.90;;;31.60;31.70;;;;;;2326566;57;22095;-74
2022/07/19 12:08:38;;;;;;;3.50;2.60;;;31.80;32.10;;;;;;2345434;57;21093;-75
2022/07/19 12:11:20;;;;;;;4.85;2.90;;;31.90;32.50;;;;;;2344727;57;21045;-74
2022/07/19 12:13:49;;;;;;;7.37;3.42;;;32.10;32.70;;;;;;2344370;57;21030;-74
2022/07/19 12:16:18;;;;;;;5.85;2.55;;;32.20;32.50;;;;;;2344720;57;21041;-74
2022/07/19 12:18:49;;;;;;;6.40;2.75;;;32.30;32.60;;;;;;2345709;57;21084;-74
2022/07/19 12:21:25;;;;;;;4.40;3.00;;;32.50;33.10;;;;;;2343372;57;21148;-74
2022/07/19 12:24:14;;;;;;;4.12;3.00;;;32.50;31.40;;;;;;2344704;57;21084;-74
2022/07/19 12:26:43;;;;;;;4.87;3.15;;;32.70;32.00;;;;;;2344022;57;21042;-74
2022/07/19 12:29:22;;;;;;;3.62;2.75;;;32.80;31.20;;;;;;2343893;57;21037;-74
2022/07/19 12:31:51;;;;;;;13.75;3.15;;;32.90;31.70;;;;;;2343854;57;21034;-75
2022/07/19 12:34:19;;;;;;;3.83;3.28;;;33.10;31.50;;;;;;2344226;57;21045;-75
2022/07/19 12:36:46;;;;;;;6.37;3.40;;;33.10;30.70;;;;;;2343248;57;21543;-75
2022/07/19 12:39:22;;;;;;;3.58;3.10;;;33.20;30.00;;;;;;2345000;57;21053;-75
2022/07/19 12:42:06;;;;;;;5.47;3.80;;;33.30;29.90;;;;;;2344609;57;21050;-74
2022/07/19 12:44:34;;;;;;;5.40;3.67;;;33.40;30.20;;;;;;2344924;57;21049;-75
2022/07/19 12:47:03;;;;;;;8.93;3.20;;;33.50;30.00;;;;;;2343835;57;21034;-76
2022/07/19 12:49:44;;;;;;;5.25;2.85;;;33.50;29.70;;;;;;2342480;57;21112;-77
2022/07/19 12:52:11;;;;;;;4.10;3.08;;;33.70;29.20;;;;;;2344650;57;21105;-77
2022/07/19 12:54:39;;;;;;;4.00;3.25;;;33.70;29.20;;;;;;2344735;57;21053;-75
2022/07/19 12:57:06;;;;;;;5.65;2.97;;;33.80;29.10;;;;;;2344065;57;21551;-75
2022/07/19 12:59:40;;;;;;;5.45;2.97;;;33.90;28.90;;;;;;2345321;57;21674;-75
2022/07/19 13:02:08;;;;;;;3.97;3.20;;;34.00;28.70;;;;;;2343960;57;21057;-75
2022/07/19 13:04:36;;;;;;;5.50;3.20;;;34.00;28.80;;;;;;2344150;57;21362;-75
2022/07/19 13:07:03;;;;;;;4.05;3.28;;;34.10;28.90;;;;;;2343546;57;21052;-76
2022/07/19 13:09:31;;;;;;;3.72;3.10;;;34.20;28.40;;;;;;2345411;57;21096;-75
2022/07/19 13:11:59;;;;;;;4.62;3.40;;;34.30;29.00;;;;;;2345074;57;21136;-76
2022/07/19 13:14:26;;;;;;;5.30;3.20;;;34.40;28.70;;;;;;2344740;57;21049;-75
2022/07/19 13:16:54;;;;;;;4.18;2.92;;;34.40;28.50;;;;;;2588878;53;21774;-76
2022/07/19 13:19:22;;;;;;;3.67;2.53;;;34.50;28.80;;;;;;2343840;57;21042;-77
2022/07/19 13:21:51;;;;;;;5.28;3.35;;;34.50;29.60;;;;;;2344250;57;21097;-77
2022/07/19 13:24:18;;;;;;;7.15;3.15;;;34.60;28.30;;;;;;2588707;53;21026;-75